Westel, Tennessee
Current Conditions -  °F | °C
As of 10:53 AM on Wednesday 28 Jan 2015 (Local Time) from KCSV Reporting Station
Clear Clear  
Wind Chill: 24°   Ceiling: Unl
Heat Index: 31°   Visibility: 10mi
Dew Point: 13°   Wind: 7mph
Humidity: 47%   Direction: 60°ENE
Pressure: 30.31"   Gusts: NA
Location:  35.8538°N, 84.6987°W
Report Text: KCSV 281553Z AUTO 06006KT 10SM CLR M01/M11 A3031 RMK AO2 SLP277 T10061106
Loading
Personal Weather Stations






























Interactive Weather Map New forecast layout! Learn more

10-Day Weather Forecast

Advertisements
Track Severe Weather on mobile